sensor_id;sensor_type;location;lat;lon;timestamp;P1;durP1;ratioP1;P2;durP2;ratioP2
59788;SDS011;47353;51.614;5.530;2023-05-07T00:01:30;8.43;;;7.25;;
59788;SDS011;47353;51.614;5.530;2023-05-07T00:03:56;8.63;;;7.13;;
59788;SDS011;47353;51.614;5.530;2023-05-07T00:06:22;8.15;;;7.32;;
59788;SDS011;47353;51.614;5.530;2023-05-07T00:08:47;9.05;;;8.10;;
59788;SDS011;47353;51.614;5.530;2023-05-07T00:11:13;11.73;;;7.57;;
59788;SDS011;47353;51.614;5.530;2023-05-07T00:13:38;8.50;;;7.70;;
59788;SDS011;47353;51.614;5.530;2023-05-07T00:16:04;8.65;;;7.75;;
59788;SDS011;47353;51.614;5.530;2023-05-07T00:18:30;9.05;;;8.15;;
59788;SDS011;47353;51.614;5.530;2023-05-07T00:20:55;9.05;;;7.72;;
59788;SDS011;47353;51.614;5.530;2023-05-07T00:23:21;9.55;;;7.97;;
59788;SDS011;47353;51.614;5.530;2023-05-07T00:25:47;8.52;;;7.68;;
59788;SDS011;47353;51.614;5.530;2023-05-07T00:28:12;9.25;;;8.27;;
59788;SDS011;47353;51.614;5.530;2023-05-07T00:30:37;9.07;;;8.18;;
59788;SDS011;47353;51.614;5.530;2023-05-07T00:33:03;10.05;;;8.38;;
59788;SDS011;47353;51.614;5.530;2023-05-07T00:35:29;11.32;;;7.82;;
59788;SDS011;47353;51.614;5.530;2023-05-07T00:37:55;9.23;;;8.32;;
59788;SDS011;47353;51.614;5.530;2023-05-07T00:40:20;10.60;;;8.45;;
59788;SDS011;47353;51.614;5.530;2023-05-07T00:42:46;11.05;;;8.85;;
59788;SDS011;47353;51.614;5.530;2023-05-07T00:45:12;11.05;;;8.93;;
59788;SDS011;47353;51.614;5.530;2023-05-07T00:47:39;10.68;;;8.85;;
59788;SDS011;47353;51.614;5.530;2023-05-07T00:50:05;10.98;;;8.88;;
59788;SDS011;47353;51.614;5.530;2023-05-07T00:52:32;11.40;;;9.18;;
59788;SDS011;47353;51.614;5.530;2023-05-07T00:54:57;9.68;;;8.68;;
59788;SDS011;47353;51.614;5.530;2023-05-07T00:57:27;13.27;;;9.25;;
59788;SDS011;47353;51.614;5.530;2023-05-07T00:59:53;12.85;;;10.00;;
59788;SDS011;47353;51.614;5.530;2023-05-07T01:02:18;10.88;;;9.65;;
59788;SDS011;47353;51.614;5.530;2023-05-07T01:04:43;11.00;;;9.80;;
59788;SDS011;47353;51.614;5.530;2023-05-07T01:07:09;11.90;;;10.15;;
59788;SDS011;47353;51.614;5.530;2023-05-07T01:09:34;12.10;;;10.35;;
59788;SDS011;47353;51.614;5.530;2023-05-07T01:12:01;11.40;;;10.18;;
59788;SDS011;47353;51.614;5.530;2023-05-07T01:14:28;11.68;;;10.02;;
59788;SDS011;47353;51.614;5.530;2023-05-07T01:16:54;11.98;;;10.73;;
59788;SDS011;47353;51.614;5.530;2023-05-07T01:19:20;12.00;;;10.80;;
59788;SDS011;47353;51.614;5.530;2023-05-07T01:21:46;13.98;;;11.02;;
59788;SDS011;47353;51.614;5.530;2023-05-07T01:24:12;11.82;;;10.57;;
59788;SDS011;47353;51.614;5.530;2023-05-07T01:26:39;15.75;;;11.93;;
59788;SDS011;47353;51.614;5.530;2023-05-07T01:29:04;12.02;;;10.75;;
59788;SDS011;47353;51.614;5.530;2023-05-07T01:31:30;13.18;;;11.88;;
59788;SDS011;47353;51.614;5.530;2023-05-07T01:33:57;14.30;;;12.82;;
59788;SDS011;47353;51.614;5.530;2023-05-07T01:36:24;14.15;;;12.65;;
59788;SDS011;47353;51.614;5.530;2023-05-07T01:38:52;14.27;;;12.20;;
59788;SDS011;47353;51.614;5.530;2023-05-07T01:41:18;16.80;;;13.73;;
59788;SDS011;47353;51.614;5.530;2023-05-07T01:43:44;18.02;;;14.40;;
59788;SDS011;47353;51.614;5.530;2023-05-07T01:46:11;17.35;;;14.82;;
59788;SDS011;47353;51.614;5.530;2023-05-07T01:48:38;19.05;;;15.10;;
59788;SDS011;47353;51.614;5.530;2023-05-07T01:51:04;17.65;;;15.38;;
59788;SDS011;47353;51.614;5.530;2023-05-07T01:53:39;20.17;;;16.65;;
59788;SDS011;47353;51.614;5.530;2023-05-07T01:56:05;20.20;;;15.75;;
59788;SDS011;47353;51.614;5.530;2023-05-07T01:58:31;17.58;;;15.65;;
59788;SDS011;47353;51.614;5.530;2023-05-07T02:00:57;19.50;;;16.60;;
59788;SDS011;47353;51.614;5.530;2023-05-07T02:03:22;19.33;;;16.60;;
59788;SDS011;47353;51.614;5.530;2023-05-07T02:05:48;19.10;;;16.70;;
59788;SDS011;47353;51.614;5.530;2023-05-07T02:08:13;22.60;;;16.70;;
59788;SDS011;47353;51.614;5.530;2023-05-07T02:10:38;20.00;;;16.55;;
59788;SDS011;47353;51.614;5.530;2023-05-07T02:13:04;20.00;;;16.50;;
59788;SDS011;47353;51.614;5.530;2023-05-07T02:15:29;18.88;;;16.35;;
59788;SDS011;47353;51.614;5.530;2023-05-07T02:17:58;19.40;;;16.80;;
59788;SDS011;47353;51.614;5.530;2023-05-07T02:20:28;24.02;;;18.02;;
59788;SDS011;47353;51.614;5.530;2023-05-07T02:22:54;20.92;;;17.77;;
59788;SDS011;47353;51.614;5.530;2023-05-07T02:25:19;20.02;;;17.55;;
59788;SDS011;47353;51.614;5.530;2023-05-07T02:27:45;20.67;;;18.42;;
59788;SDS011;47353;51.614;5.530;2023-05-07T02:30:10;21.58;;;18.45;;
59788;SDS011;47353;51.614;5.530;2023-05-07T02:32:36;21.88;;;17.90;;
59788;SDS011;47353;51.614;5.530;2023-05-07T02:35:01;22.25;;;18.05;;
59788;SDS011;47353;51.614;5.530;2023-05-07T02:37:27;20.65;;;18.35;;
59788;SDS011;47353;51.614;5.530;2023-05-07T02:39:52;24.52;;;19.33;;
59788;SDS011;47353;51.614;5.530;2023-05-07T02:42:17;21.90;;;18.90;;
59788;SDS011;47353;51.614;5.530;2023-05-07T02:44:43;23.77;;;19.58;;
59788;SDS011;47353;51.614;5.530;2023-05-07T02:47:08;22.00;;;19.20;;
59788;SDS011;47353;51.614;5.530;2023-05-07T02:49:34;23.33;;;18.98;;
59788;SDS011;47353;51.614;5.530;2023-05-07T02:52:00;24.92;;;19.88;;
59788;SDS011;47353;51.614;5.530;2023-05-07T02:54:25;24.77;;;19.92;;
59788;SDS011;47353;51.614;5.530;2023-05-07T02:56:51;21.52;;;19.17;;
59788;SDS011;47353;51.614;5.530;2023-05-07T02:59:16;25.77;;;19.58;;
59788;SDS011;47353;51.614;5.530;2023-05-07T03:01:41;22.40;;;19.15;;
59788;SDS011;47353;51.614;5.530;2023-05-07T03:04:09;21.80;;;19.55;;
59788;SDS011;47353;51.614;5.530;2023-05-07T03:06:35;23.60;;;19.67;;
59788;SDS011;47353;51.614;5.530;2023-05-07T03:09:01;24.00;;;20.63;;
59788;SDS011;47353;51.614;5.530;2023-05-07T03:11:26;24.83;;;20.65;;
59788;SDS011;47353;51.614;5.530;2023-05-07T03:13:52;23.60;;;21.08;;
59788;SDS011;47353;51.614;5.530;2023-05-07T03:16:17;23.58;;;20.73;;
59788;SDS011;47353;51.614;5.530;2023-05-07T03:18:42;25.20;;;20.00;;
59788;SDS011;47353;51.614;5.530;2023-05-07T03:21:08;26.80;;;20.98;;
59788;SDS011;47353;51.614;5.530;2023-05-07T03:23:33;26.13;;;20.95;;
59788;SDS011;47353;51.614;5.530;2023-05-07T03:25:59;23.98;;;21.25;;
59788;SDS011;47353;51.614;5.530;2023-05-07T03:28:24;24.60;;;21.00;;
59788;SDS011;47353;51.614;5.530;2023-05-07T03:30:50;24.90;;;21.35;;
59788;SDS011;47353;51.614;5.530;2023-05-07T03:33:15;26.63;;;22.65;;
59788;SDS011;47353;51.614;5.530;2023-05-07T03:35:41;23.85;;;21.33;;
59788;SDS011;47353;51.614;5.530;2023-05-07T03:38:06;25.30;;;21.90;;
59788;SDS011;47353;51.614;5.530;2023-05-07T03:40:32;26.40;;;21.00;;
59788;SDS011;47353;51.614;5.530;2023-05-07T03:42:59;24.83;;;21.85;;
59788;SDS011;47353;51.614;5.530;2023-05-07T03:45:24;28.10;;;22.33;;
59788;SDS011;47353;51.614;5.530;2023-05-07T03:47:50;23.63;;;21.08;;
59788;SDS011;47353;51.614;5.530;2023-05-07T03:50:16;28.00;;;22.55;;
59788;SDS011;47353;51.614;5.530;2023-05-07T03:52:41;25.10;;;21.63;;
59788;SDS011;47353;51.614;5.530;2023-05-07T03:55:07;24.30;;;21.65;;
59788;SDS011;47353;51.614;5.530;2023-05-07T03:57:32;28.63;;;22.27;;
59788;SDS011;47353;51.614;5.530;2023-05-07T03:59:58;25.95;;;21.98;;
59788;SDS011;47353;51.614;5.530;2023-05-07T04:02:23;25.23;;;21.63;;
59788;SDS011;47353;51.614;5.530;2023-05-07T04:04:49;25.88;;;22.48;;
59788;SDS011;47353;51.614;5.530;2023-05-07T04:07:14;25.42;;;21.27;;
59788;SDS011;47353;51.614;5.530;2023-05-07T04:09:40;28.63;;;22.88;;
59788;SDS011;47353;51.614;5.530;2023-05-07T04:12:06;25.63;;;21.80;;
59788;SDS011;47353;51.614;5.530;2023-05-07T04:14:31;25.67;;;22.85;;
59788;SDS011;47353;51.614;5.530;2023-05-07T04:17:00;25.50;;;22.75;;
59788;SDS011;47353;51.614;5.530;2023-05-07T04:19:25;27.58;;;23.77;;
59788;SDS011;47353;51.614;5.530;2023-05-07T04:21:51;27.30;;;23.90;;
59788;SDS011;47353;51.614;5.530;2023-05-07T04:24:16;29.05;;;23.15;;
59788;SDS011;47353;51.614;5.530;2023-05-07T04:26:42;27.17;;;23.30;;
59788;SDS011;47353;51.614;5.530;2023-05-07T04:29:07;28.88;;;24.30;;
59788;SDS011;47353;51.614;5.530;2023-05-07T04:31:32;31.45;;;25.17;;
59788;SDS011;47353;51.614;5.530;2023-05-07T04:33:58;31.52;;;24.90;;
59788;SDS011;47353;51.614;5.530;2023-05-07T04:36:23;29.80;;;24.63;;
59788;SDS011;47353;51.614;5.530;2023-05-07T04:38:52;29.25;;;24.45;;
59788;SDS011;47353;51.614;5.530;2023-05-07T04:41:18;31.42;;;26.58;;
59788;SDS011;47353;51.614;5.530;2023-05-07T04:43:44;32.72;;;25.83;;
59788;SDS011;47353;51.614;5.530;2023-05-07T04:46:09;31.55;;;26.13;;
59788;SDS011;47353;51.614;5.530;2023-05-07T04:48:35;30.75;;;26.45;;
59788;SDS011;47353;51.614;5.530;2023-05-07T04:51:00;32.60;;;26.85;;
59788;SDS011;47353;51.614;5.530;2023-05-07T04:53:25;31.27;;;25.20;;
59788;SDS011;47353;51.614;5.530;2023-05-07T04:55:54;30.67;;;26.90;;
59788;SDS011;47353;51.614;5.530;2023-05-07T04:58:21;36.15;;;27.65;;
59788;SDS011;47353;51.614;5.530;2023-05-07T05:00:46;36.10;;;28.52;;
59788;SDS011;47353;51.614;5.530;2023-05-07T05:03:11;36.30;;;27.60;;
59788;SDS011;47353;51.614;5.530;2023-05-07T05:05:37;32.95;;;28.58;;
59788;SDS011;47353;51.614;5.530;2023-05-07T05:08:03;36.65;;;29.48;;
59788;SDS011;47353;51.614;5.530;2023-05-07T05:10:28;34.75;;;28.95;;
59788;SDS011;47353;51.614;5.530;2023-05-07T05:12:53;33.50;;;27.67;;
59788;SDS011;47353;51.614;5.530;2023-05-07T05:15:19;35.35;;;28.33;;
59788;SDS011;47353;51.614;5.530;2023-05-07T05:17:44;36.25;;;28.92;;
59788;SDS011;47353;51.614;5.530;2023-05-07T05:20:10;35.20;;;29.13;;
59788;SDS011;47353;51.614;5.530;2023-05-07T05:22:36;35.17;;;29.35;;
59788;SDS011;47353;51.614;5.530;2023-05-07T05:25:02;35.53;;;30.17;;
59788;SDS011;47353;51.614;5.530;2023-05-07T05:27:28;37.15;;;30.70;;
59788;SDS011;47353;51.614;5.530;2023-05-07T05:29:54;34.47;;;29.65;;
59788;SDS011;47353;51.614;5.530;2023-05-07T05:32:19;39.28;;;30.92;;
59788;SDS011;47353;51.614;5.530;2023-05-07T05:34:44;35.15;;;29.85;;
59788;SDS011;47353;51.614;5.530;2023-05-07T05:37:10;34.90;;;30.65;;
59788;SDS011;47353;51.614;5.530;2023-05-07T05:39:36;38.55;;;30.42;;
59788;SDS011;47353;51.614;5.530;2023-05-07T05:42:01;35.65;;;30.65;;
59788;SDS011;47353;51.614;5.530;2023-05-07T05:44:27;33.50;;;29.42;;
59788;SDS011;47353;51.614;5.530;2023-05-07T05:46:52;35.85;;;30.27;;
59788;SDS011;47353;51.614;5.530;2023-05-07T05:49:20;34.17;;;30.52;;
59788;SDS011;47353;51.614;5.530;2023-05-07T05:51:46;37.65;;;31.00;;
59788;SDS011;47353;51.614;5.530;2023-05-07T05:54:11;33.03;;;29.35;;
59788;SDS011;47353;51.614;5.530;2023-05-07T05:56:36;36.00;;;30.60;;
59788;SDS011;47353;51.614;5.530;2023-05-07T05:59:02;37.67;;;31.30;;
59788;SDS011;47353;51.614;5.530;2023-05-07T06:01:28;34.33;;;30.17;;
59788;SDS011;47353;51.614;5.530;2023-05-07T06:03:53;35.33;;;30.73;;
59788;SDS011;47353;51.614;5.530;2023-05-07T06:06:18;34.80;;;30.92;;
59788;SDS011;47353;51.614;5.530;2023-05-07T06:08:44;34.63;;;30.15;;
59788;SDS011;47353;51.614;5.530;2023-05-07T06:11:09;34.92;;;30.77;;
59788;SDS011;47353;51.614;5.530;2023-05-07T06:13:35;34.53;;;30.80;;
59788;SDS011;47353;51.614;5.530;2023-05-07T06:16:00;34.45;;;30.23;;
59788;SDS011;47353;51.614;5.530;2023-05-07T06:18:26;32.72;;;29.20;;
59788;SDS011;47353;51.614;5.530;2023-05-07T06:20:51;33.97;;;29.27;;
59788;SDS011;47353;51.614;5.530;2023-05-07T06:23:17;32.22;;;28.73;;
59788;SDS011;47353;51.614;5.530;2023-05-07T06:25:47;33.05;;;28.75;;
59788;SDS011;47353;51.614;5.530;2023-05-07T06:28:16;32.55;;;29.02;;
59788;SDS011;47353;51.614;5.530;2023-05-07T06:30:41;31.92;;;28.05;;
59788;SDS011;47353;51.614;5.530;2023-05-07T06:33:07;35.58;;;29.08;;
59788;SDS011;47353;51.614;5.530;2023-05-07T06:35:32;31.90;;;28.20;;
59788;SDS011;47353;51.614;5.530;2023-05-07T06:37:57;31.38;;;28.08;;
59788;SDS011;47353;51.614;5.530;2023-05-07T06:40:23;34.03;;;27.30;;
59788;SDS011;47353;51.614;5.530;2023-05-07T06:42:48;32.63;;;28.33;;
59788;SDS011;47353;51.614;5.530;2023-05-07T06:45:14;31.55;;;27.08;;
59788;SDS011;47353;51.614;5.530;2023-05-07T06:47:39;31.38;;;27.35;;
59788;SDS011;47353;51.614;5.530;2023-05-07T06:50:05;31.42;;;28.05;;
59788;SDS011;47353;51.614;5.530;2023-05-07T06:52:30;32.20;;;27.30;;
59788;SDS011;47353;51.614;5.530;2023-05-07T06:54:56;32.15;;;27.58;;
59788;SDS011;47353;51.614;5.530;2023-05-07T06:57:21;28.90;;;25.90;;
59788;SDS011;47353;51.614;5.530;2023-05-07T06:59:47;29.90;;;26.80;;
59788;SDS011;47353;51.614;5.530;2023-05-07T07:02:12;30.77;;;25.42;;
59788;SDS011;47353;51.614;5.530;2023-05-07T07:04:37;29.35;;;25.30;;
59788;SDS011;47353;51.614;5.530;2023-05-07T07:07:03;28.35;;;25.02;;
59788;SDS011;47353;51.614;5.530;2023-05-07T07:09:28;29.30;;;25.85;;
59788;SDS011;47353;51.614;5.530;2023-05-07T07:11:54;28.50;;;25.60;;
59788;SDS011;47353;51.614;5.530;2023-05-07T07:14:19;28.70;;;25.38;;
59788;SDS011;47353;51.614;5.530;2023-05-07T07:16:45;29.90;;;25.88;;
59788;SDS011;47353;51.614;5.530;2023-05-07T07:19:11;27.98;;;25.05;;
59788;SDS011;47353;51.614;5.530;2023-05-07T07:21:37;26.85;;;24.17;;
59788;SDS011;47353;51.614;5.530;2023-05-07T07:24:02;27.25;;;23.55;;
59788;SDS011;47353;51.614;5.530;2023-05-07T07:26:28;27.92;;;25.13;;
59788;SDS011;47353;51.614;5.530;2023-05-07T07:28:53;25.13;;;22.52;;
59788;SDS011;47353;51.614;5.530;2023-05-07T07:31:19;27.05;;;24.20;;
59788;SDS011;47353;51.614;5.530;2023-05-07T07:33:44;26.92;;;24.13;;
59788;SDS011;47353;51.614;5.530;2023-05-07T07:36:10;29.08;;;24.70;;
59788;SDS011;47353;51.614;5.530;2023-05-07T07:38:35;24.80;;;21.98;;
59788;SDS011;47353;51.614;5.530;2023-05-07T07:41:01;28.83;;;24.67;;
59788;SDS011;47353;51.614;5.530;2023-05-07T07:43:26;25.73;;;23.00;;
59788;SDS011;47353;51.614;5.530;2023-05-07T07:45:52;28.80;;;24.40;;
59788;SDS011;47353;51.614;5.530;2023-05-07T07:48:18;28.95;;;23.77;;
59788;SDS011;47353;51.614;5.530;2023-05-07T07:50:43;26.38;;;23.67;;
59788;SDS011;47353;51.614;5.530;2023-05-07T07:53:08;25.90;;;22.75;;
59788;SDS011;47353;51.614;5.530;2023-05-07T07:55:37;25.95;;;23.25;;
59788;SDS011;47353;51.614;5.530;2023-05-07T07:58:04;25.10;;;22.60;;
59788;SDS011;47353;51.614;5.530;2023-05-07T08:00:30;24.90;;;22.35;;
59788;SDS011;47353;51.614;5.530;2023-05-07T08:02:55;23.65;;;21.23;;
59788;SDS011;47353;51.614;5.530;2023-05-07T08:05:21;23.70;;;21.27;;
59788;SDS011;47353;51.614;5.530;2023-05-07T08:07:46;23.85;;;21.20;;
59788;SDS011;47353;51.614;5.530;2023-05-07T08:10:16;24.55;;;21.52;;
59788;SDS011;47353;51.614;5.530;2023-05-07T08:12:46;23.65;;;20.58;;
59788;SDS011;47353;51.614;5.530;2023-05-07T08:15:12;22.67;;;20.38;;
59788;SDS011;47353;51.614;5.530;2023-05-07T08:17:38;23.05;;;20.67;;
59788;SDS011;47353;51.614;5.530;2023-05-07T08:20:03;21.58;;;19.25;;
59788;SDS011;47353;51.614;5.530;2023-05-07T08:22:29;21.65;;;19.35;;
59788;SDS011;47353;51.614;5.530;2023-05-07T08:24:55;21.50;;;19.17;;
59788;SDS011;47353;51.614;5.530;2023-05-07T08:27:20;20.38;;;18.25;;
59788;SDS011;47353;51.614;5.530;2023-05-07T08:29:46;21.83;;;18.30;;
59788;SDS011;47353;51.614;5.530;2023-05-07T08:32:12;21.73;;;18.48;;
59788;SDS011;47353;51.614;5.530;2023-05-07T08:34:38;20.60;;;18.48;;
59788;SDS011;47353;51.614;5.530;2023-05-07T08:37:04;20.15;;;17.90;;
59788;SDS011;47353;51.614;5.530;2023-05-07T08:39:29;17.63;;;15.88;;
59788;SDS011;47353;51.614;5.530;2023-05-07T08:41:55;17.42;;;15.45;;
59788;SDS011;47353;51.614;5.530;2023-05-07T08:44:22;15.90;;;14.30;;
59788;SDS011;47353;51.614;5.530;2023-05-07T08:46:50;15.73;;;14.23;;
59788;SDS011;47353;51.614;5.530;2023-05-07T08:49:19;17.10;;;15.30;;
59788;SDS011;47353;51.614;5.530;2023-05-07T08:51:45;16.65;;;15.07;;
59788;SDS011;47353;51.614;5.530;2023-05-07T08:54:11;17.10;;;15.32;;
59788;SDS011;47353;51.614;5.530;2023-05-07T08:56:37;16.63;;;14.95;;
59788;SDS011;47353;51.614;5.530;2023-05-07T08:59:04;18.10;;;14.95;;
59788;SDS011;47353;51.614;5.530;2023-05-07T09:01:30;16.40;;;14.50;;
59788;SDS011;47353;51.614;5.530;2023-05-07T09:03:55;17.15;;;15.38;;
59788;SDS011;47353;51.614;5.530;2023-05-07T09:06:21;17.73;;;15.95;;
59788;SDS011;47353;51.614;5.530;2023-05-07T09:08:50;16.77;;;14.93;;
59788;SDS011;47353;51.614;5.530;2023-05-07T09:11:19;16.33;;;14.82;;
59788;SDS011;47353;51.614;5.530;2023-05-07T09:13:46;16.20;;;14.48;;
59788;SDS011;47353;51.614;5.530;2023-05-07T09:16:11;16.50;;;14.80;;
59788;SDS011;47353;51.614;5.530;2023-05-07T09:18:46;15.27;;;13.73;;
59788;SDS011;47353;51.614;5.530;2023-05-07T09:21:16;16.42;;;14.82;;
59788;SDS011;47353;51.614;5.530;2023-05-07T09:23:42;16.90;;;15.18;;
59788;SDS011;47353;51.614;5.530;2023-05-07T09:26:08;16.00;;;14.50;;
59788;SDS011;47353;51.614;5.530;2023-05-07T09:28:43;15.98;;;14.23;;
59788;SDS011;47353;51.614;5.530;2023-05-07T09:31:10;16.88;;;14.18;;
59788;SDS011;47353;51.614;5.530;2023-05-07T09:33:36;15.20;;;13.60;;
59788;SDS011;47353;51.614;5.530;2023-05-07T09:36:05;15.38;;;13.88;;
59788;SDS011;47353;51.614;5.530;2023-05-07T09:38:32;17.13;;;14.93;;
59788;SDS011;47353;51.614;5.530;2023-05-07T09:41:05;15.85;;;14.20;;
59788;SDS011;47353;51.614;5.530;2023-05-07T09:43:35;18.52;;;13.88;;
59788;SDS011;47353;51.614;5.530;2023-05-07T09:48:36;16.58;;;14.60;;
59788;SDS011;47353;51.614;5.530;2023-05-07T09:51:06;19.42;;;14.80;;
59788;SDS011;47353;51.614;5.530;2023-05-07T09:53:56;17.40;;;14.77;;
59788;SDS011;47353;51.614;5.530;2023-05-07T09:56:25;16.95;;;14.60;;
59788;SDS011;47353;51.614;5.530;2023-05-07T09:58:52;15.88;;;13.98;;
59788;SDS011;47353;51.614;5.530;2023-05-07T10:01:21;15.75;;;14.15;;
59788;SDS011;47353;51.614;5.530;2023-05-07T10:03:47;16.30;;;14.60;;
59788;SDS011;47353;51.614;5.530;2023-05-07T10:06:15;17.45;;;15.70;;
59788;SDS011;47353;51.614;5.530;2023-05-07T10:08:40;17.10;;;15.27;;
59788;SDS011;47353;51.614;5.530;2023-05-07T10:11:07;17.45;;;14.50;;
59788;SDS011;47353;51.614;5.530;2023-05-07T10:13:34;16.23;;;14.20;;
59788;SDS011;47353;51.614;5.530;2023-05-07T10:16:01;15.55;;;14.05;;
59788;SDS011;47353;51.614;5.530;2023-05-07T10:18:30;15.38;;;13.88;;
59788;SDS011;47353;51.614;5.530;2023-05-07T10:21:01;15.80;;;14.13;;
59788;SDS011;47353;51.614;5.530;2023-05-07T10:23:36;13.68;;;12.25;;
59788;SDS011;47353;51.614;5.530;2023-05-07T10:26:04;15.00;;;13.38;;
59788;SDS011;47353;51.614;5.530;2023-05-07T10:28:33;14.30;;;12.30;;
59788;SDS011;47353;51.614;5.530;2023-05-07T10:34:03;13.98;;;12.63;;
59788;SDS011;47353;51.614;5.530;2023-05-07T10:36:35;13.37;;;12.10;;
59788;SDS011;47353;51.614;5.530;2023-05-07T10:39:01;17.73;;;11.60;;
59788;SDS011;47353;51.614;5.530;2023-05-07T10:41:29;12.90;;;11.70;;
59788;SDS011;47353;51.614;5.530;2023-05-07T10:43:55;13.88;;;11.50;;
59788;SDS011;47353;51.614;5.530;2023-05-07T10:46:21;11.98;;;10.77;;
59788;SDS011;47353;51.614;5.530;2023-05-07T10:51:28;12.30;;;11.10;;
59788;SDS011;47353;51.614;5.530;2023-05-07T10:56:41;11.95;;;10.70;;
59788;SDS011;47353;51.614;5.530;2023-05-07T11:04:19;11.40;;;10.15;;
59788;SDS011;47353;51.614;5.530;2023-05-07T11:15:02;11.18;;;10.18;;
59788;SDS011;47353;51.614;5.530;2023-05-07T11:17:29;10.52;;;8.70;;
59788;SDS011;47353;51.614;5.530;2023-05-07T11:20:00;12.30;;;8.65;;
59788;SDS011;47353;51.614;5.530;2023-05-07T11:25:04;10.75;;;8.50;;
59788;SDS011;47353;51.614;5.530;2023-05-07T11:27:31;9.10;;;8.07;;
59788;SDS011;47353;51.614;5.530;2023-05-07T11:29:57;10.65;;;9.32;;
59788;SDS011;47353;51.614;5.530;2023-05-07T11:32:27;9.32;;;8.43;;
59788;SDS011;47353;51.614;5.530;2023-05-07T11:34:55;10.27;;;9.18;;
59788;SDS011;47353;51.614;5.530;2023-05-07T11:37:22;9.52;;;8.45;;
59788;SDS011;47353;51.614;5.530;2023-05-07T11:39:48;9.80;;;7.95;;
59788;SDS011;47353;51.614;5.530;2023-05-07T11:42:27;9.05;;;8.15;;
59788;SDS011;47353;51.614;5.530;2023-05-07T11:44:52;10.85;;;8.93;;
59788;SDS011;47353;51.614;5.530;2023-05-07T11:47:18;10.38;;;8.90;;
59788;SDS011;47353;51.614;5.530;2023-05-07T11:49:46;8.82;;;7.60;;
59788;SDS011;47353;51.614;5.530;2023-05-07T11:52:15;10.10;;;9.07;;
59788;SDS011;47353;51.614;5.530;2023-05-07T11:54:43;9.65;;;8.68;;
59788;SDS011;47353;51.614;5.530;2023-05-07T11:57:14;10.93;;;8.10;;
59788;SDS011;47353;51.614;5.530;2023-05-07T11:59:40;8.50;;;6.72;;
59788;SDS011;47353;51.614;5.530;2023-05-07T12:02:06;7.57;;;6.80;;
59788;SDS011;47353;51.614;5.530;2023-05-07T12:04:32;8.25;;;7.10;;
59788;SDS011;47353;51.614;5.530;2023-05-07T12:06:58;8.13;;;7.32;;
59788;SDS011;47353;51.614;5.530;2023-05-07T12:09:23;7.25;;;6.30;;
59788;SDS011;47353;51.614;5.530;2023-05-07T12:11:49;7.38;;;6.20;;
59788;SDS011;47353;51.614;5.530;2023-05-07T12:14:16;8.43;;;6.50;;
59788;SDS011;47353;51.614;5.530;2023-05-07T12:16:41;6.90;;;6.15;;
59788;SDS011;47353;51.614;5.530;2023-05-07T12:19:07;9.57;;;6.03;;
59788;SDS011;47353;51.614;5.530;2023-05-07T12:21:37;13.15;;;6.50;;
59788;SDS011;47353;51.614;5.530;2023-05-07T12:24:03;8.73;;;5.93;;
59788;SDS011;47353;51.614;5.530;2023-05-07T12:26:29;8.45;;;7.00;;
59788;SDS011;47353;51.614;5.530;2023-05-07T12:28:54;8.38;;;6.65;;
59788;SDS011;47353;51.614;5.530;2023-05-07T12:31:21;8.35;;;6.70;;
59788;SDS011;47353;51.614;5.530;2023-05-07T12:33:47;8.88;;;7.30;;
59788;SDS011;47353;51.614;5.530;2023-05-07T12:36:12;9.48;;;7.18;;
59788;SDS011;47353;51.614;5.530;2023-05-07T12:38:38;11.30;;;6.85;;
59788;SDS011;47353;51.614;5.530;2023-05-07T12:41:06;6.65;;;5.70;;
59788;SDS011;47353;51.614;5.530;2023-05-07T12:43:33;8.13;;;6.35;;
59788;SDS011;47353;51.614;5.530;2023-05-07T12:46:03;8.55;;;6.70;;
59788;SDS011;47353;51.614;5.530;2023-05-07T12:48:29;8.82;;;6.57;;
59788;SDS011;47353;51.614;5.530;2023-05-07T12:50:56;11.18;;;6.88;;
59788;SDS011;47353;51.614;5.530;2023-05-07T12:53:23;8.63;;;6.40;;
59788;SDS011;47353;51.614;5.530;2023-05-07T12:55:51;7.70;;;6.40;;
59788;SDS011;47353;51.614;5.530;2023-05-07T12:58:19;11.02;;;6.88;;
59788;SDS011;47353;51.614;5.530;2023-05-07T13:00:50;9.93;;;7.43;;
59788;SDS011;47353;51.614;5.530;2023-05-07T13:03:37;10.52;;;6.90;;
59788;SDS011;47353;51.614;5.530;2023-05-07T13:06:03;7.68;;;6.95;;
59788;SDS011;47353;51.614;5.530;2023-05-07T13:08:34;10.30;;;8.70;;
59788;SDS011;47353;51.614;5.530;2023-05-07T13:11:02;13.23;;;9.88;;
59788;SDS011;47353;51.614;5.530;2023-05-07T13:13:32;11.25;;;8.52;;
59788;SDS011;47353;51.614;5.530;2023-05-07T13:15:59;4.95;;;3.90;;
59788;SDS011;47353;51.614;5.530;2023-05-07T13:18:25;4.82;;;1.83;;
59788;SDS011;47353;51.614;5.530;2023-05-07T13:20:52;2.88;;;1.88;;
59788;SDS011;47353;51.614;5.530;2023-05-07T13:23:18;2.92;;;1.60;;
59788;SDS011;47353;51.614;5.530;2023-05-07T13:25:44;2.22;;;1.50;;
59788;SDS011;47353;51.614;5.530;2023-05-07T13:28:10;3.95;;;1.60;;
59788;SDS011;47353;51.614;5.530;2023-05-07T13:30:35;4.47;;;1.60;;
59788;SDS011;47353;51.614;5.530;2023-05-07T13:33:01;1.90;;;1.42;;
59788;SDS011;47353;51.614;5.530;2023-05-07T13:35:27;3.72;;;1.55;;
59788;SDS011;47353;51.614;5.530;2023-05-07T13:37:52;5.43;;;1.80;;
59788;SDS011;47353;51.614;5.530;2023-05-07T13:40:19;5.80;;;2.10;;
59788;SDS011;47353;51.614;5.530;2023-05-07T13:42:45;8.65;;;2.50;;
59788;SDS011;47353;51.614;5.530;2023-05-07T13:45:10;7.05;;;2.30;;
59788;SDS011;47353;51.614;5.530;2023-05-07T13:47:39;5.82;;;2.20;;
59788;SDS011;47353;51.614;5.530;2023-05-07T13:50:05;5.90;;;2.30;;
59788;SDS011;47353;51.614;5.530;2023-05-07T13:52:32;7.00;;;2.55;;
59788;SDS011;47353;51.614;5.530;2023-05-07T13:54:57;6.25;;;2.70;;
59788;SDS011;47353;51.614;5.530;2023-05-07T13:57:23;6.47;;;2.80;;
59788;SDS011;47353;51.614;5.530;2023-05-07T13:59:49;6.00;;;3.10;;
59788;SDS011;47353;51.614;5.530;2023-05-07T14:02:14;6.18;;;2.63;;
59788;SDS011;47353;51.614;5.530;2023-05-07T14:04:40;5.07;;;3.13;;
59788;SDS011;47353;51.614;5.530;2023-05-07T14:07:05;5.75;;;3.15;;
59788;SDS011;47353;51.614;5.530;2023-05-07T14:09:30;4.82;;;3.20;;
59788;SDS011;47353;51.614;5.530;2023-05-07T14:11:56;5.68;;;3.33;;
59788;SDS011;47353;51.614;5.530;2023-05-07T14:14:21;3.55;;;2.92;;
59788;SDS011;47353;51.614;5.530;2023-05-07T14:16:47;6.60;;;2.92;;
59788;SDS011;47353;51.614;5.530;2023-05-07T14:19:12;6.95;;;2.50;;
59788;SDS011;47353;51.614;5.530;2023-05-07T14:21:38;5.43;;;2.22;;
59788;SDS011;47353;51.614;5.530;2023-05-07T14:24:03;4.75;;;2.50;;
59788;SDS011;47353;51.614;5.530;2023-05-07T14:26:30;6.00;;;2.50;;
59788;SDS011;47353;51.614;5.530;2023-05-07T14:28:56;5.45;;;2.92;;
59788;SDS011;47353;51.614;5.530;2023-05-07T14:31:23;5.43;;;2.80;;
59788;SDS011;47353;51.614;5.530;2023-05-07T14:33:49;4.93;;;3.38;;
59788;SDS011;47353;51.614;5.530;2023-05-07T14:36:16;7.70;;;4.32;;
59788;SDS011;47353;51.614;5.530;2023-05-07T14:38:42;7.22;;;4.40;;
59788;SDS011;47353;51.614;5.530;2023-05-07T14:41:07;7.05;;;4.32;;
59788;SDS011;47353;51.614;5.530;2023-05-07T14:43:33;7.70;;;4.22;;
59788;SDS011;47353;51.614;5.530;2023-05-07T14:45:58;4.50;;;4.07;;
59788;SDS011;47353;51.614;5.530;2023-05-07T14:48:24;5.18;;;3.67;;
59788;SDS011;47353;51.614;5.530;2023-05-07T14:50:49;4.45;;;4.05;;